sensor_id;sensor_type;location;lat;lon;timestamp;P1;durP1;ratioP1;P2;durP2;ratioP2
70832;SDS011;58452;59.418;17.962;2022-08-19T00:01:45;23.27;;;18.10;;
70832;SDS011;58452;59.418;17.962;2022-08-19T00:04:13;23.00;;;17.52;;
70832;SDS011;58452;59.418;17.962;2022-08-19T00:06:41;25.10;;;17.63;;
70832;SDS011;58452;59.418;17.962;2022-08-19T00:09:09;23.08;;;18.67;;
70832;SDS011;58452;59.418;17.962;2022-08-19T00:11:36;27.50;;;19.88;;
70832;SDS011;58452;59.418;17.962;2022-08-19T00:14:02;24.92;;;17.67;;
70832;SDS011;58452;59.418;17.962;2022-08-19T00:16:29;24.45;;;18.63;;
70832;SDS011;58452;59.418;17.962;2022-08-19T00:18:55;24.48;;;18.15;;
70832;SDS011;58452;59.418;17.962;2022-08-19T00:21:20;28.70;;;19.63;;
70832;SDS011;58452;59.418;17.962;2022-08-19T00:23:47;26.08;;;17.50;;
70832;SDS011;58452;59.418;17.962;2022-08-19T00:26:13;28.90;;;19.40;;
70832;SDS011;58452;59.418;17.962;2022-08-19T00:28:39;29.02;;;20.48;;
70832;SDS011;58452;59.418;17.962;2022-08-19T00:31:04;29.30;;;20.75;;
70832;SDS011;58452;59.418;17.962;2022-08-19T00:33:32;30.33;;;19.85;;
70832;SDS011;58452;59.418;17.962;2022-08-19T00:35:58;27.92;;;19.70;;
70832;SDS011;58452;59.418;17.962;2022-08-19T00:38:24;26.23;;;19.80;;
70832;SDS011;58452;59.418;17.962;2022-08-19T00:40:50;32.72;;;22.40;;
70832;SDS011;58452;59.418;17.962;2022-08-19T00:43:18;30.17;;;21.83;;
70832;SDS011;58452;59.418;17.962;2022-08-19T00:45:46;28.05;;;21.70;;
70832;SDS011;58452;59.418;17.962;2022-08-19T00:48:13;31.23;;;23.48;;
70832;SDS011;58452;59.418;17.962;2022-08-19T00:50:40;35.08;;;24.83;;
70832;SDS011;58452;59.418;17.962;2022-08-19T00:53:07;30.52;;;22.38;;
70832;SDS011;58452;59.418;17.962;2022-08-19T00:55:35;28.65;;;22.65;;
70832;SDS011;58452;59.418;17.962;2022-08-19T00:58:02;32.60;;;24.38;;
70832;SDS011;58452;59.418;17.962;2022-08-19T01:00:32;36.20;;;25.90;;
70832;SDS011;58452;59.418;17.962;2022-08-19T01:03:01;30.92;;;23.75;;
70832;SDS011;58452;59.418;17.962;2022-08-19T01:05:28;28.52;;;23.67;;
70832;SDS011;58452;59.418;17.962;2022-08-19T01:07:54;34.80;;;25.25;;
70832;SDS011;58452;59.418;17.962;2022-08-19T01:10:23;35.03;;;24.08;;
70832;SDS011;58452;59.418;17.962;2022-08-19T01:12:51;31.55;;;24.35;;
70832;SDS011;58452;59.418;17.962;2022-08-19T01:15:21;29.63;;;22.75;;
70832;SDS011;58452;59.418;17.962;2022-08-19T01:17:51;35.65;;;22.13;;
70832;SDS011;58452;59.418;17.962;2022-08-19T01:20:19;33.95;;;24.92;;
70832;SDS011;58452;59.418;17.962;2022-08-19T01:22:50;34.92;;;24.38;;
70832;SDS011;58452;59.418;17.962;2022-08-19T01:25:19;33.20;;;24.58;;
70832;SDS011;58452;59.418;17.962;2022-08-19T01:27:48;31.75;;;24.42;;
70832;SDS011;58452;59.418;17.962;2022-08-19T01:30:16;32.65;;;24.70;;
70832;SDS011;58452;59.418;17.962;2022-08-19T01:32:47;30.27;;;22.25;;
70832;SDS011;58452;59.418;17.962;2022-08-19T01:35:13;33.97;;;22.85;;
70832;SDS011;58452;59.418;17.962;2022-08-19T01:37:56;27.73;;;22.48;;
70832;SDS011;58452;59.418;17.962;2022-08-19T01:40:25;33.85;;;25.38;;
70832;SDS011;58452;59.418;17.962;2022-08-19T01:42:52;28.23;;;22.55;;
70832;SDS011;58452;59.418;17.962;2022-08-19T01:45:19;30.60;;;21.88;;
70832;SDS011;58452;59.418;17.962;2022-08-19T01:47:46;28.15;;;21.23;;
70832;SDS011;58452;59.418;17.962;2022-08-19T01:50:11;25.60;;;21.58;;
70832;SDS011;58452;59.418;17.962;2022-08-19T01:52:39;26.98;;;21.23;;
70832;SDS011;58452;59.418;17.962;2022-08-19T01:55:06;25.08;;;20.20;;
70832;SDS011;58452;59.418;17.962;2022-08-19T01:57:34;25.13;;;20.55;;
70832;SDS011;58452;59.418;17.962;2022-08-19T02:00:00;22.23;;;19.88;;
70832;SDS011;58452;59.418;17.962;2022-08-19T02:02:27;26.88;;;21.23;;
70832;SDS011;58452;59.418;17.962;2022-08-19T02:04:53;23.67;;;19.50;;
70832;SDS011;58452;59.418;17.962;2022-08-19T02:07:19;23.98;;;19.55;;
70832;SDS011;58452;59.418;17.962;2022-08-19T02:09:46;27.02;;;22.48;;
70832;SDS011;58452;59.418;17.962;2022-08-19T02:12:13;24.48;;;20.75;;
70832;SDS011;58452;59.418;17.962;2022-08-19T02:14:39;30.05;;;22.48;;
70832;SDS011;58452;59.418;17.962;2022-08-19T02:17:05;24.10;;;20.40;;
70832;SDS011;58452;59.418;17.962;2022-08-19T02:19:31;23.08;;;20.52;;
70832;SDS011;58452;59.418;17.962;2022-08-19T02:21:57;25.95;;;21.58;;
70832;SDS011;58452;59.418;17.962;2022-08-19T02:24:23;27.83;;;20.95;;
70832;SDS011;58452;59.418;17.962;2022-08-19T02:26:49;24.05;;;21.45;;
70832;SDS011;58452;59.418;17.962;2022-08-19T02:29:14;24.13;;;20.80;;
70832;SDS011;58452;59.418;17.962;2022-08-19T02:31:40;27.25;;;21.58;;
70832;SDS011;58452;59.418;17.962;2022-08-19T02:34:05;25.90;;;20.85;;
70832;SDS011;58452;59.418;17.962;2022-08-19T02:36:31;32.97;;;22.38;;
70832;SDS011;58452;59.418;17.962;2022-08-19T02:38:56;27.77;;;21.83;;
70832;SDS011;58452;59.418;17.962;2022-08-19T02:41:23;25.52;;;22.13;;
70832;SDS011;58452;59.418;17.962;2022-08-19T02:43:50;24.17;;;21.23;;
70832;SDS011;58452;59.418;17.962;2022-08-19T02:48:49;23.60;;;19.70;;
70832;SDS011;58452;59.418;17.962;2022-08-19T02:51:18;27.95;;;21.27;;
70832;SDS011;58452;59.418;17.962;2022-08-19T02:53:45;28.85;;;21.58;;
70832;SDS011;58452;59.418;17.962;2022-08-19T02:56:11;24.65;;;22.08;;
70832;SDS011;58452;59.418;17.962;2022-08-19T02:58:36;27.95;;;20.90;;
70832;SDS011;58452;59.418;17.962;2022-08-19T03:01:02;25.02;;;21.77;;
70832;SDS011;58452;59.418;17.962;2022-08-19T03:03:28;25.95;;;21.75;;
70832;SDS011;58452;59.418;17.962;2022-08-19T03:06:14;26.10;;;19.38;;
70832;SDS011;58452;59.418;17.962;2022-08-19T03:08:43;27.50;;;20.40;;
70832;SDS011;58452;59.418;17.962;2022-08-19T03:11:17;26.45;;;21.27;;
70832;SDS011;58452;59.418;17.962;2022-08-19T03:13:44;31.80;;;22.33;;
70832;SDS011;58452;59.418;17.962;2022-08-19T03:16:15;25.98;;;20.58;;
70832;SDS011;58452;59.418;17.962;2022-08-19T03:18:42;23.50;;;20.15;;
70832;SDS011;58452;59.418;17.962;2022-08-19T03:21:08;26.08;;;21.42;;
70832;SDS011;58452;59.418;17.962;2022-08-19T03:23:35;23.67;;;21.02;;
70832;SDS011;58452;59.418;17.962;2022-08-19T03:26:03;24.98;;;20.45;;
70832;SDS011;58452;59.418;17.962;2022-08-19T03:28:30;25.55;;;21.63;;
70832;SDS011;58452;59.418;17.962;2022-08-19T03:31:00;25.83;;;21.05;;
70832;SDS011;58452;59.418;17.962;2022-08-19T03:33:28;25.25;;;22.55;;
70832;SDS011;58452;59.418;17.962;2022-08-19T03:36:09;25.42;;;20.17;;
70832;SDS011;58452;59.418;17.962;2022-08-19T03:38:37;24.60;;;22.00;;
70832;SDS011;58452;59.418;17.962;2022-08-19T03:41:14;23.00;;;20.23;;
70832;SDS011;58452;59.418;17.962;2022-08-19T03:43:44;27.38;;;21.75;;
70832;SDS011;58452;59.418;17.962;2022-08-19T03:46:14;26.05;;;21.70;;
70832;SDS011;58452;59.418;17.962;2022-08-19T03:48:42;26.98;;;20.80;;
70832;SDS011;58452;59.418;17.962;2022-08-19T03:51:22;26.38;;;21.55;;
70832;SDS011;58452;59.418;17.962;2022-08-19T03:53:47;28.90;;;19.33;;
70832;SDS011;58452;59.418;17.962;2022-08-19T03:56:14;27.88;;;23.45;;
70832;SDS011;58452;59.418;17.962;2022-08-19T03:58:40;27.45;;;21.65;;
70832;SDS011;58452;59.418;17.962;2022-08-19T04:01:13;31.92;;;23.10;;
70832;SDS011;58452;59.418;17.962;2022-08-19T04:08:39;28.90;;;21.38;;
70832;SDS011;58452;59.418;17.962;2022-08-19T04:11:07;22.90;;;20.45;;
70832;SDS011;58452;59.418;17.962;2022-08-19T04:13:40;26.85;;;21.38;;
70832;SDS011;58452;59.418;17.962;2022-08-19T04:16:08;27.60;;;21.23;;
70832;SDS011;58452;59.418;17.962;2022-08-19T04:18:35;29.10;;;22.90;;
70832;SDS011;58452;59.418;17.962;2022-08-19T04:21:02;29.67;;;22.25;;
70832;SDS011;58452;59.418;17.962;2022-08-19T04:23:28;28.90;;;22.75;;
70832;SDS011;58452;59.418;17.962;2022-08-19T04:25:54;30.85;;;22.50;;
70832;SDS011;58452;59.418;17.962;2022-08-19T04:28:20;26.10;;;22.33;;
70832;SDS011;58452;59.418;17.962;2022-08-19T04:30:48;29.30;;;22.90;;
70832;SDS011;58452;59.418;17.962;2022-08-19T04:33:16;35.10;;;25.30;;
70832;SDS011;58452;59.418;17.962;2022-08-19T04:35:46;32.70;;;23.48;;
70832;SDS011;58452;59.418;17.962;2022-08-19T04:38:14;28.45;;;23.20;;
70832;SDS011;58452;59.418;17.962;2022-08-19T04:40:41;32.13;;;24.20;;
70832;SDS011;58452;59.418;17.962;2022-08-19T04:43:27;29.35;;;22.15;;
70832;SDS011;58452;59.418;17.962;2022-08-19T04:45:53;26.52;;;22.23;;
70832;SDS011;58452;59.418;17.962;2022-08-19T04:48:19;29.23;;;24.23;;
70832;SDS011;58452;59.418;17.962;2022-08-19T04:50:50;27.83;;;22.73;;
70832;SDS011;58452;59.418;17.962;2022-08-19T04:53:21;28.35;;;21.40;;
70832;SDS011;58452;59.418;17.962;2022-08-19T04:55:47;23.38;;;20.67;;
70832;SDS011;58452;59.418;17.962;2022-08-19T04:58:12;28.10;;;20.73;;
70832;SDS011;58452;59.418;17.962;2022-08-19T05:00:38;25.77;;;21.58;;
70832;SDS011;58452;59.418;17.962;2022-08-19T05:03:04;23.73;;;19.52;;
70832;SDS011;58452;59.418;17.962;2022-08-19T05:05:30;24.55;;;19.77;;
70832;SDS011;58452;59.418;17.962;2022-08-19T05:07:56;26.33;;;20.85;;
70832;SDS011;58452;59.418;17.962;2022-08-19T05:10:21;29.10;;;20.92;;
70832;SDS011;58452;59.418;17.962;2022-08-19T05:12:47;23.15;;;20.65;;
70832;SDS011;58452;59.418;17.962;2022-08-19T05:15:12;25.92;;;20.50;;
70832;SDS011;58452;59.418;17.962;2022-08-19T05:17:37;22.98;;;19.98;;
70832;SDS011;58452;59.418;17.962;2022-08-19T05:20:04;24.55;;;21.83;;
70832;SDS011;58452;59.418;17.962;2022-08-19T05:22:49;28.30;;;20.92;;
70832;SDS011;58452;59.418;17.962;2022-08-19T05:25:16;28.60;;;21.38;;
70832;SDS011;58452;59.418;17.962;2022-08-19T05:27:44;26.42;;;21.45;;
70832;SDS011;58452;59.418;17.962;2022-08-19T05:30:10;28.27;;;22.33;;
70832;SDS011;58452;59.418;17.962;2022-08-19T05:32:37;25.33;;;18.77;;
70832;SDS011;58452;59.418;17.962;2022-08-19T05:35:03;29.08;;;21.10;;
70832;SDS011;58452;59.418;17.962;2022-08-19T05:37:29;28.38;;;21.77;;
70832;SDS011;58452;59.418;17.962;2022-08-19T05:39:55;29.85;;;19.85;;
70832;SDS011;58452;59.418;17.962;2022-08-19T05:42:20;31.90;;;21.23;;
70832;SDS011;58452;59.418;17.962;2022-08-19T05:44:47;25.83;;;20.95;;
70832;SDS011;58452;59.418;17.962;2022-08-19T05:47:14;28.17;;;22.23;;
70832;SDS011;58452;59.418;17.962;2022-08-19T05:49:39;30.00;;;22.45;;
70832;SDS011;58452;59.418;17.962;2022-08-19T05:52:06;26.38;;;21.15;;
70832;SDS011;58452;59.418;17.962;2022-08-19T05:54:34;25.10;;;20.75;;
70832;SDS011;58452;59.418;17.962;2022-08-19T05:57:01;29.25;;;21.58;;
70832;SDS011;58452;59.418;17.962;2022-08-19T05:59:27;29.85;;;23.55;;
70832;SDS011;58452;59.418;17.962;2022-08-19T06:01:53;27.00;;;22.45;;
70832;SDS011;58452;59.418;17.962;2022-08-19T06:04:20;26.88;;;22.70;;
70832;SDS011;58452;59.418;17.962;2022-08-19T06:06:47;25.17;;;21.13;;
70832;SDS011;58452;59.418;17.962;2022-08-19T06:09:13;26.60;;;22.05;;
70832;SDS011;58452;59.418;17.962;2022-08-19T06:11:40;32.40;;;21.27;;
70832;SDS011;58452;59.418;17.962;2022-08-19T06:14:11;23.00;;;20.42;;
70832;SDS011;58452;59.418;17.962;2022-08-19T06:16:46;25.70;;;20.70;;
70832;SDS011;58452;59.418;17.962;2022-08-19T06:19:16;26.92;;;20.45;;
70832;SDS011;58452;59.418;17.962;2022-08-19T06:21:44;27.85;;;20.00;;
70832;SDS011;58452;59.418;17.962;2022-08-19T06:24:12;23.45;;;19.55;;
70832;SDS011;58452;59.418;17.962;2022-08-19T06:26:44;24.17;;;18.75;;
70832;SDS011;58452;59.418;17.962;2022-08-19T06:29:12;20.33;;;17.95;;
70832;SDS011;58452;59.418;17.962;2022-08-19T06:31:40;19.25;;;17.23;;
70832;SDS011;58452;59.418;17.962;2022-08-19T06:34:08;27.40;;;19.63;;
70832;SDS011;58452;59.418;17.962;2022-08-19T06:36:35;29.60;;;18.48;;
70832;SDS011;58452;59.418;17.962;2022-08-19T06:39:06;26.83;;;18.10;;
70832;SDS011;58452;59.418;17.962;2022-08-19T06:41:34;21.95;;;16.40;;
70832;SDS011;58452;59.418;17.962;2022-08-19T06:44:02;21.38;;;16.17;;
70832;SDS011;58452;59.418;17.962;2022-08-19T06:46:28;18.73;;;16.73;;
70832;SDS011;58452;59.418;17.962;2022-08-19T06:48:53;18.10;;;15.35;;
70832;SDS011;58452;59.418;17.962;2022-08-19T06:51:20;20.90;;;16.23;;
70832;SDS011;58452;59.418;17.962;2022-08-19T06:53:46;18.73;;;13.10;;
70832;SDS011;58452;59.418;17.962;2022-08-19T06:56:15;17.75;;;14.23;;
70832;SDS011;58452;59.418;17.962;2022-08-19T06:58:42;17.35;;;14.05;;
70832;SDS011;58452;59.418;17.962;2022-08-19T07:01:07;17.60;;;14.90;;
70832;SDS011;58452;59.418;17.962;2022-08-19T07:03:34;20.15;;;13.75;;
70832;SDS011;58452;59.418;17.962;2022-08-19T07:06:05;16.80;;;12.63;;
70832;SDS011;58452;59.418;17.962;2022-08-19T07:08:33;13.98;;;11.38;;
70832;SDS011;58452;59.418;17.962;2022-08-19T07:10:59;19.92;;;11.75;;
70832;SDS011;58452;59.418;17.962;2022-08-19T07:13:25;16.85;;;11.55;;
70832;SDS011;58452;59.418;17.962;2022-08-19T07:15:50;15.52;;;10.77;;
70832;SDS011;58452;59.418;17.962;2022-08-19T07:18:19;14.95;;;10.70;;
70832;SDS011;58452;59.418;17.962;2022-08-19T07:20:46;15.48;;;10.65;;
70832;SDS011;58452;59.418;17.962;2022-08-19T07:23:11;12.18;;;11.00;;
70832;SDS011;58452;59.418;17.962;2022-08-19T07:25:37;11.40;;;8.77;;
70832;SDS011;58452;59.418;17.962;2022-08-19T07:28:03;17.25;;;11.38;;
70832;SDS011;58452;59.418;17.962;2022-08-19T07:30:29;14.52;;;10.68;;
70832;SDS011;58452;59.418;17.962;2022-08-19T07:32:55;12.05;;;10.57;;
70832;SDS011;58452;59.418;17.962;2022-08-19T07:35:21;16.98;;;10.60;;
70832;SDS011;58452;59.418;17.962;2022-08-19T07:37:48;13.77;;;10.32;;
70832;SDS011;58452;59.418;17.962;2022-08-19T07:40:14;14.55;;;11.05;;
70832;SDS011;58452;59.418;17.962;2022-08-19T07:42:40;10.85;;;9.30;;
70832;SDS011;58452;59.418;17.962;2022-08-19T07:45:07;13.90;;;11.10;;
70832;SDS011;58452;59.418;17.962;2022-08-19T07:47:33;16.13;;;10.05;;
70832;SDS011;58452;59.418;17.962;2022-08-19T07:49:59;15.25;;;10.15;;
70832;SDS011;58452;59.418;17.962;2022-08-19T07:52:24;10.25;;;9.10;;
70832;SDS011;58452;59.418;17.962;2022-08-19T07:54:50;14.82;;;9.50;;
70832;SDS011;58452;59.418;17.962;2022-08-19T07:57:16;17.38;;;9.35;;
70832;SDS011;58452;59.418;17.962;2022-08-19T07:59:41;12.25;;;8.80;;
70832;SDS011;58452;59.418;17.962;2022-08-19T08:02:07;14.68;;;10.20;;
70832;SDS011;58452;59.418;17.962;2022-08-19T08:04:34;13.25;;;9.02;;
70832;SDS011;58452;59.418;17.962;2022-08-19T08:07:18;15.30;;;9.32;;
70832;SDS011;58452;59.418;17.962;2022-08-19T08:10:03;13.20;;;9.73;;
70832;SDS011;58452;59.418;17.962;2022-08-19T08:12:31;12.23;;;8.68;;
70832;SDS011;58452;59.418;17.962;2022-08-19T08:15:01;13.27;;;8.75;;
70832;SDS011;58452;59.418;17.962;2022-08-19T08:17:32;13.40;;;8.15;;
70832;SDS011;58452;59.418;17.962;2022-08-19T08:19:58;10.45;;;7.20;;
70832;SDS011;58452;59.418;17.962;2022-08-19T08:22:24;17.65;;;7.32;;
70832;SDS011;58452;59.418;17.962;2022-08-19T08:25:09;13.30;;;7.55;;
70832;SDS011;58452;59.418;17.962;2022-08-19T08:27:38;15.50;;;6.55;;
70832;SDS011;58452;59.418;17.962;2022-08-19T08:30:09;9.45;;;6.93;;
70832;SDS011;58452;59.418;17.962;2022-08-19T08:32:39;16.55;;;6.53;;
70832;SDS011;58452;59.418;17.962;2022-08-19T08:35:07;7.93;;;6.57;;
70832;SDS011;58452;59.418;17.962;2022-08-19T08:37:34;12.85;;;7.05;;
70832;SDS011;58452;59.418;17.962;2022-08-19T08:40:11;13.55;;;6.88;;
70832;SDS011;58452;59.418;17.962;2022-08-19T08:42:44;9.82;;;7.20;;
70832;SDS011;58452;59.418;17.962;2022-08-19T08:45:36;14.13;;;6.38;;
70832;SDS011;58452;59.418;17.962;2022-08-19T08:48:13;15.05;;;6.57;;
70832;SDS011;58452;59.418;17.962;2022-08-19T08:50:59;16.38;;;6.32;;
70832;SDS011;58452;59.418;17.962;2022-08-19T08:53:28;17.08;;;6.45;;
70832;SDS011;58452;59.418;17.962;2022-08-19T08:55:57;13.05;;;7.05;;
70832;SDS011;58452;59.418;17.962;2022-08-19T08:58:30;16.65;;;7.05;;
70832;SDS011;58452;59.418;17.962;2022-08-19T09:01:08;7.97;;;6.28;;
70832;SDS011;58452;59.418;17.962;2022-08-19T09:03:36;11.95;;;6.47;;
70832;SDS011;58452;59.418;17.962;2022-08-19T09:06:06;11.05;;;5.93;;
70832;SDS011;58452;59.418;17.962;2022-08-19T09:09:19;16.08;;;6.07;;
70832;SDS011;58452;59.418;17.962;2022-08-19T09:14:33;12.30;;;6.32;;
70832;SDS011;58452;59.418;17.962;2022-08-19T09:17:06;10.75;;;5.22;;
70832;SDS011;58452;59.418;17.962;2022-08-19T09:19:34;9.73;;;5.45;;
70832;SDS011;58452;59.418;17.962;2022-08-19T09:22:11;18.77;;;6.63;;
70832;SDS011;58452;59.418;17.962;2022-08-19T09:24:36;11.73;;;5.90;;
70832;SDS011;58452;59.418;17.962;2022-08-19T09:27:03;15.35;;;6.18;;
70832;SDS011;58452;59.418;17.962;2022-08-19T09:29:29;13.40;;;6.75;;
70832;SDS011;58452;59.418;17.962;2022-08-19T09:31:55;15.98;;;5.53;;
70832;SDS011;58452;59.418;17.962;2022-08-19T09:34:20;7.82;;;5.18;;
70832;SDS011;58452;59.418;17.962;2022-08-19T09:36:46;8.73;;;5.50;;
70832;SDS011;58452;59.418;17.962;2022-08-19T09:39:11;6.93;;;4.93;;
70832;SDS011;58452;59.418;17.962;2022-08-19T09:41:37;8.95;;;4.97;;
70832;SDS011;58452;59.418;17.962;2022-08-19T09:44:02;10.60;;;5.80;;
70832;SDS011;58452;59.418;17.962;2022-08-19T09:46:28;10.52;;;5.38;;
70832;SDS011;58452;59.418;17.962;2022-08-19T09:48:56;10.38;;;4.97;;
70832;SDS011;58452;59.418;17.962;2022-08-19T09:51:24;8.30;;;5.93;;
70832;SDS011;58452;59.418;17.962;2022-08-19T09:53:53;9.57;;;4.30;;
70832;SDS011;58452;59.418;17.962;2022-08-19T09:56:19;8.13;;;5.35;;
70832;SDS011;58452;59.418;17.962;2022-08-19T09:58:46;9.35;;;5.47;;
70832;SDS011;58452;59.418;17.962;2022-08-19T10:01:16;10.32;;;5.80;;
70832;SDS011;58452;59.418;17.962;2022-08-19T10:03:43;6.20;;;4.78;;
70832;SDS011;58452;59.418;17.962;2022-08-19T10:06:08;7.90;;;5.43;;
70832;SDS011;58452;59.418;17.962;2022-08-19T10:08:35;15.63;;;5.38;;
70832;SDS011;58452;59.418;17.962;2022-08-19T10:11:03;10.65;;;5.75;;
70832;SDS011;58452;59.418;17.962;2022-08-19T10:13:30;9.13;;;5.50;;
70832;SDS011;58452;59.418;17.962;2022-08-19T10:16:07;7.07;;;5.38;;
70832;SDS011;58452;59.418;17.962;2022-08-19T10:18:36;12.07;;;5.43;;
70832;SDS011;58452;59.418;17.962;2022-08-19T10:23:58;9.48;;;4.70;;
70832;SDS011;58452;59.418;17.962;2022-08-19T10:26:27;8.93;;;4.85;;
70832;SDS011;58452;59.418;17.962;2022-08-19T10:28:55;8.80;;;5.60;;
70832;SDS011;58452;59.418;17.962;2022-08-19T10:31:23;9.90;;;4.70;;
70832;SDS011;58452;59.418;17.962;2022-08-19T10:33:50;11.90;;;6.13;;
70832;SDS011;58452;59.418;17.962;2022-08-19T10:36:22;9.18;;;5.75;;
70832;SDS011;58452;59.418;17.962;2022-08-19T10:38:56;10.25;;;5.03;;
70832;SDS011;58452;59.418;17.962;2022-08-19T10:41:30;13.63;;;5.72;;
70832;SDS011;58452;59.418;17.962;2022-08-19T10:43:59;14.52;;;6.22;;
70832;SDS011;58452;59.418;17.962;2022-08-19T10:46:27;14.65;;;5.75;;
70832;SDS011;58452;59.418;17.962;2022-08-19T10:48:56;12.88;;;6.25;;
70832;SDS011;58452;59.418;17.962;2022-08-19T10:51:21;7.63;;;4.63;;
70832;SDS011;58452;59.418;17.962;2022-08-19T10:54:06;9.35;;;5.75;;
70832;SDS011;58452;59.418;17.962;2022-08-19T10:56:31;10.88;;;5.82;;
70832;SDS011;58452;59.418;17.962;2022-08-19T10:59:17;12.60;;;5.63;;
70832;SDS011;58452;59.418;17.962;2022-08-19T11:01:45;13.05;;;5.32;;
70832;SDS011;58452;59.418;17.962;2022-08-19T11:04:11;12.10;;;6.00;;
70832;SDS011;58452;59.418;17.962;2022-08-19T11:06:38;9.57;;;6.43;;
70832;SDS011;58452;59.418;17.962;2022-08-19T11:09:05;8.93;;;5.28;;
70832;SDS011;58452;59.418;17.962;2022-08-19T11:11:31;8.15;;;5.65;;
70832;SDS011;58452;59.418;17.962;2022-08-19T11:14:05;9.98;;;6.00;;
70832;SDS011;58452;59.418;17.962;2022-08-19T11:16:41;9.55;;;5.10;;
70832;SDS011;58452;59.418;17.962;2022-08-19T11:19:08;12.85;;;6.10;;
70832;SDS011;58452;59.418;17.962;2022-08-19T11:21:37;7.35;;;5.68;;
70832;SDS011;58452;59.418;17.962;2022-08-19T11:24:09;11.57;;;5.75;;
70832;SDS011;58452;59.418;17.962;2022-08-19T11:26:37;11.32;;;5.68;;
70832;SDS011;58452;59.418;17.962;2022-08-19T11:29:04;8.95;;;5.00;;
70832;SDS011;58452;59.418;17.962;2022-08-19T11:31:32;9.15;;;5.20;;
70832;SDS011;58452;59.418;17.962;2022-08-19T11:34:01;11.32;;;4.82;;
70832;SDS011;58452;59.418;17.962;2022-08-19T11:36:29;6.95;;;5.32;;
70832;SDS011;58452;59.418;17.962;2022-08-19T11:38:57;14.23;;;5.47;;
70832;SDS011;58452;59.418;17.962;2022-08-19T11:41:23;11.57;;;5.68;;
70832;SDS011;58452;59.418;17.962;2022-08-19T11:43:50;13.05;;;5.47;;
70832;SDS011;58452;59.418;17.962;2022-08-19T11:46:17;12.20;;;5.35;;
70832;SDS011;58452;59.418;17.962;2022-08-19T11:48:43;9.75;;;4.43;;
70832;SDS011;58452;59.418;17.962;2022-08-19T11:51:10;7.05;;;4.97;;
70832;SDS011;58452;59.418;17.962;2022-08-19T11:53:38;11.15;;;4.57;;
70832;SDS011;58452;59.418;17.962;2022-08-19T11:56:04;11.05;;;5.05;;
70832;SDS011;58452;59.418;17.962;2022-08-19T11:58:31;7.90;;;4.63;;
70832;SDS011;58452;59.418;17.962;2022-08-19T12:00:56;10.77;;;4.78;;
70832;SDS011;58452;59.418;17.962;2022-08-19T12:03:22;9.30;;;4.45;;
70832;SDS011;58452;59.418;17.962;2022-08-19T12:05:48;6.68;;;4.80;;
70832;SDS011;58452;59.418;17.962;2022-08-19T12:08:15;8.48;;;4.68;;
70832;SDS011;58452;59.418;17.962;2022-08-19T12:10:41;8.77;;;4.70;;
70832;SDS011;58452;59.418;17.962;2022-08-19T12:13:07;8.68;;;4.53;;
70832;SDS011;58452;59.418;17.962;2022-08-19T12:15:37;8.57;;;4.80;;
70832;SDS011;58452;59.418;17.962;2022-08-19T12:18:05;6.97;;;4.97;;
70832;SDS011;58452;59.418;17.962;2022-08-19T12:20:33;7.57;;;4.45;;
70832;SDS011;58452;59.418;17.962;2022-08-19T12:23:04;7.97;;;4.70;;
70832;SDS011;58452;59.418;17.962;2022-08-19T12:25:30;8.95;;;4.75;;
70832;SDS011;58452;59.418;17.962;2022-08-19T12:27:56;9.98;;;4.85;;
70832;SDS011;58452;59.418;17.962;2022-08-19T12:30:22;9.65;;;4.68;;
70832;SDS011;58452;59.418;17.962;2022-08-19T12:32:48;9.18;;;4.97;;
70832;SDS011;58452;59.418;17.962;2022-08-19T12:35:13;10.68;;;4.28;;
70832;SDS011;58452;59.418;17.962;2022-08-19T12:37:39;11.65;;;4.82;;
70832;SDS011;58452;59.418;17.962;2022-08-19T12:40:09;9.80;;;4.22;;
70832;SDS011;58452;59.418;17.962;2022-08-19T12:42:36;10.48;;;4.60;;
70832;SDS011;58452;59.418;17.962;2022-08-19T12:45:07;8.10;;;4.60;;
70832;SDS011;58452;59.418;17.962;2022-08-19T12:47:36;14.25;;;5.43;;
70832;SDS011;58452;59.418;17.962;2022-08-19T12:50:02;8.52;;;4.95;;
70832;SDS011;58452;59.418;17.962;2022-08-19T12:52:29;9.30;;;4.60;;
70832;SDS011;58452;59.418;17.962;2022-08-19T12:54:55;7.50;;;4.25;;
70832;SDS011;58452;59.418;17.962;2022-08-19T12:57:23;10.30;;;4.03;;
70832;SDS011;58452;59.418;17.962;2022-08-19T12:59:53;8.07;;;4.55;;
70832;SDS011;58452;59.418;17.962;2022-08-19T13:02:19;9.48;;;3.90;;
70832;SDS011;58452;59.418;17.962;2022-08-19T13:04:45;6.40;;;4.88;;
70832;SDS011;58452;59.418;17.962;2022-08-19T13:07:10;10.65;;;4.20;;
70832;SDS011;58452;59.418;17.962;2022-08-19T13:09:36;7.28;;;4.43;;
70832;SDS011;58452;59.418;17.962;2022-08-19T13:12:02;7.72;;;5.25;;
70832;SDS011;58452;59.418;17.962;2022-08-19T13:14:32;9.38;;;4.85;;
70832;SDS011;58452;59.418;17.962;2022-08-19T13:16:58;8.55;;;5.57;;
70832;SDS011;58452;59.418;17.962;2022-08-19T13:19:23;6.30;;;4.45;;
70832;SDS011;58452;59.418;17.962;2022-08-19T13:21:49;10.18;;;5.22;;
70832;SDS011;58452;59.418;17.962;2022-08-19T13:24:16;9.70;;;4.65;;
70832;SDS011;58452;59.418;17.962;2022-08-19T13:26:41;9.23;;;4.78;;
70832;SDS011;58452;59.418;17.962;2022-08-19T13:29:07;10.95;;;4.10;;
70832;SDS011;58452;59.418;17.962;2022-08-19T13:31:51;11.63;;;4.75;;
70832;SDS011;58452;59.418;17.962;2022-08-19T13:34:35;11.20;;;4.67;;
70832;SDS011;58452;59.418;17.962;2022-08-19T13:37:02;12.38;;;5.13;;
70832;SDS011;58452;59.418;17.962;2022-08-19T13:39:30;8.10;;;4.68;;
70832;SDS011;58452;59.418;17.962;2022-08-19T13:41:57;15.10;;;5.10;;
70832;SDS011;58452;59.418;17.962;2022-08-19T13:44:25;12.60;;;4.60;;
70832;SDS011;58452;59.418;17.962;2022-08-19T13:46:51;10.23;;;5.03;;
70832;SDS011;58452;59.418;17.962;2022-08-19T13:49:17;10.80;;;5.20;;
70832;SDS011;58452;59.418;17.962;2022-08-19T13:51:43;5.03;;;4.07;;
70832;SDS011;58452;59.418;17.962;2022-08-19T13:54:09;12.98;;;4.88;;
70832;SDS011;58452;59.418;17.962;2022-08-19T13:56:39;10.65;;;4.93;;
70832;SDS011;58452;59.418;17.962;2022-08-19T13:59:09;7.35;;;5.25;;
70832;SDS011;58452;59.418;17.962;2022-08-19T14:01:35;10.63;;;5.10;;
70832;SDS011;58452;59.418;17.962;2022-08-19T14:04:02;17.27;;;4.85;;
70832;SDS011;58452;59.418;17.962;2022-08-19T14:06:28;7.80;;;5.05;;
70832;SDS011;58452;59.418;17.962;2022-08-19T14:08:53;16.25;;;5.15;;
70832;SDS011;58452;59.418;17.962;2022-08-19T14:11:19;8.85;;;4.35;;
70832;SDS011;58452;59.418;17.962;2022-08-19T14:13:44;8.35;;;4.50;;
70832;SDS011;58452;59.418;17.962;2022-08-19T14:16:10;12.85;;;5.47;;
70832;SDS011;58452;59.418;17.962;2022-08-19T14:18:37;9.60;;;5.28;;
70832;SDS011;58452;59.418;17.962;2022-08-19T14:21:04;10.05;;;5.22;;
70832;SDS011;58452;59.418;17.962;2022-08-19T14:23:32;6.05;;;4.78;;
70832;SDS011;58452;59.418;17.962;2022-08-19T14:26:13;10.00;;;4.80;;
70832;SDS011;58452;59.418;17.962;2022-08-19T14:28:42;10.90;;;5.47;;
70832;SDS011;58452;59.418;17.962;2022-08-19T14:31:11;11.52;;;4.90;;
70832;SDS011;58452;59.418;17.962;2022-08-19T14:33:43;9.10;;;4.88;;
70832;SDS011;58452;59.418;17.962;2022-08-19T14:36:08;8.60;;;5.18;;
70832;SDS011;58452;59.418;17.962;2022-08-19T14:38:34;13.90;;;5.85;;